Time;durP1;ratioP1;P1;durP2;ratioP2;P2;SDS_P1;SDS_P2;PMS_P1;PMS_P2;Temp;Humidity;BMP_temperature;BMP_pressure;BME280_temperature;BME280_humidity;BME280_pressure;Samples;Min_cycle;Max_cycle;Signal;HPM_P1;HPM_P2
2021/11/17 02:26:01;;;;;;;49.53;25.48;;;;;;;-1.61;83.32;141884.97;1853516;77;22155;-65
2021/11/17 02:29:24;;;;;;;46.00;25.15;;;;;;;-1.67;83.52;141870.09;1834815;77;22184;-63
2021/11/17 02:32:23;;;;;;;52.95;27.62;;;;;;;-1.69;83.48;141865.13;1835007;77;22124;-66
2021/11/17 02:35:40;;;;;;;47.23;27.02;;;;;;;-1.71;83.43;141858.92;1835000;77;22132;-64
2021/11/17 02:38:24;;;;;;;51.05;26.00;;;;;;;-1.75;83.46;141850.25;1834998;77;22157;-67
2021/11/17 02:41:41;;;;;;;54.03;25.25;;;;;;;-1.80;83.53;141837.84;1853581;77;22191;-66
2021/11/17 02:44:47;;;;;;;46.18;24.95;;;;;;;-1.84;83.61;141827.89;1835002;77;22133;-69
2021/11/17 02:47:30;;;;;;;44.33;25.88;;;;;;;-1.85;83.72;141825.44;1834976;77;22160;-65
2021/11/17 02:50:44;;;;;;;48.40;26.27;;;;;;;-1.87;83.71;141820.47;1834985;77;22148;-65
2021/11/17 02:53:44;;;;;;;52.95;24.65;;;;;;;-1.87;83.70;141820.47;1853540;77;22155;-67
2021/11/17 02:56:52;;;;;;;44.90;25.62;;;;;;;-1.90;83.68;141814.25;1853528;77;22570;-63
2021/11/17 02:59:33;;;;;;;42.23;24.27;;;;;;;-1.93;83.80;141806.83;1835011;77;22125;-63
2021/11/17 03:02:55;;;;;;;47.55;26.05;;;;;;;-1.94;83.83;141804.31;1853474;77;22183;-65
2021/11/17 03:06:12;;;;;;;46.70;24.07;;;;;;;-1.94;83.82;141804.31;1834987;77;22156;-63
2021/11/17 03:09:01;;;;;;;45.52;23.55;;;;;;;-2.02;83.85;141785.70;1853487;77;22722;-64
2021/11/17 03:12:05;;;;;;;40.98;23.60;;;;;;;-2.05;84.00;141778.27;1834942;77;22570;-65
2021/11/17 03:15:38;;;;;;;38.78;21.93;;;;;;;-2.11;84.13;141762.12;1853494;77;22171;-64
2021/11/17 03:18:40;;;;;;;48.38;24.55;;;;;;;-2.20;84.44;141741.06;1834980;77;22128;-65
2021/11/17 03:21:37;;;;;;;44.95;22.17;;;;;;;-2.19;84.59;141743.52;1848201;77;22123;-66
2021/11/17 03:24:33;;;;;;;39.55;21.52;;;;;;;-2.20;84.64;141741.06;1834969;77;22124;-66
2021/11/17 03:27:45;;;;;;;43.08;22.32;;;;;;;-2.17;84.63;141748.48;1879424;76;22108;-64
2021/11/17 03:30:32;;;;;;;37.20;20.90;;;;;;;-2.13;84.50;141758.44;1834976;77;22160;-67
2021/11/17 03:33:33;;;;;;;42.95;21.62;;;;;;;-2.10;84.49;141765.86;1835058;77;22210;-66
2021/11/17 03:36:39;;;;;;;37.33;20.60;;;;;;;-2.06;84.36;141775.81;1835002;77;22124;-66
2021/11/17 03:39:23;;;;;;;51.70;21.75;;;;;;;-2.07;84.20;141773.30;1834977;77;22128;-64
2021/11/17 03:42:40;;;;;;;40.38;20.32;;;;;;;-2.07;84.17;141773.30;1834941;77;22156;-66
2021/11/17 03:45:40;;;;;;;34.15;18.67;;;;;;;-2.08;84.14;141770.84;1853493;77;22175;-64
2021/11/17 03:48:48;;;;;;;38.13;20.60;;;;;;;-2.11;84.10;141762.12;1834981;77;22116;-64
2021/11/17 03:52:19;;;;;;;37.20;19.90;;;;;;;-2.14;84.15;141755.92;1835106;77;22136;-66
2021/11/17 03:55:17;;;;;;;39.45;19.98;;;;;;;-2.16;84.24;141751.00;1834990;77;22579;-65
2021/11/17 03:58:03;;;;;;;31.20;18.55;;;;;;;-2.16;84.24;141751.00;1834935;77;22148;-67
2021/11/17 04:00:58;;;;;;;34.18;21.60;;;;;;;-2.16;84.24;141751.00;1827815;78;28004;-65
2021/11/17 04:04:10;;;;;;;33.45;19.95;;;;;;;-2.08;84.13;141770.84;1834989;77;22136;-65
2021/11/17 04:07:08;;;;;;;31.87;18.42;;;;;;;-2.10;84.08;141765.86;1834963;77;22157;-66
2021/11/17 04:10:37;;;;;;;38.63;19.90;;;;;;;-2.13;84.03;141757.20;1853478;77;22128;-69
2021/11/17 04:13:33;;;;;;;39.15;20.10;;;;;;;-2.15;84.08;141752.22;1853464;77;22156;-67
2021/11/17 04:16:25;;;;;;;34.95;18.87;;;;;;;-2.16;84.11;141749.72;1835025;77;22567;-69
2021/11/17 04:19:29;;;;;;;38.67;20.40;;;;;;;-2.16;84.11;141751.00;1835056;77;22152;-68
2021/11/17 04:22:35;;;;;;;39.18;21.95;;;;;;;-2.14;84.05;141755.92;1853519;77;22160;-67
2021/11/17 04:25:51;;;;;;;32.73;19.42;;;;;;;-2.13;83.88;141758.44;1835039;77;20095;-69
2021/11/17 04:29:09;;;;;;;43.50;19.07;;;;;;;-2.15;83.87;141753.47;1853590;77;22131;-68
2021/11/17 04:32:11;;;;;;;37.33;21.30;;;;;;;-2.17;83.83;141747.25;1834177;77;22555;-68
2021/11/17 04:35:10;;;;;;;39.20;21.35;;;;;;;-2.22;83.91;141736.08;1853530;77;22132;-67
2021/11/17 04:38:02;;;;;;;40.90;21.48;;;;;;;-2.24;83.92;141732.39;1835015;77;20223;-65
2021/11/17 04:41:28;;;;;;;40.45;20.88;;;;;;;-2.26;84.01;141727.42;1835025;77;22161;-67
2021/11/17 04:44:20;;;;;;;37.28;20.90;;;;;;;-2.27;83.98;141723.69;1834967;77;22128;-68
2021/11/17 04:47:13;;;;;;;44.20;21.87;;;;;;;-2.29;84.00;141718.70;1834965;77;22124;-68
2021/11/17 04:50:11;;;;;;;39.48;20.62;;;;;;;-2.30;84.07;141716.25;1835027;77;22547;-69
2021/11/17 04:53:20;;;;;;;34.35;19.85;;;;;;;-2.31;84.10;141713.78;1853448;77;22154;-69
2021/11/17 04:56:13;;;;;;;38.42;20.35;;;;;;;-2.39;84.24;141695.19;1853809;77;22632;-65
2021/11/17 04:59:11;;;;;;;40.63;20.50;;;;;;;-2.44;84.46;141682.78;1835076;77;22558;-66
2021/11/17 05:02:12;;;;;;;40.55;20.75;;;;;;;-2.49;84.62;141671.61;1834990;77;22145;-66
2021/11/17 05:05:25;;;;;;;39.88;19.82;;;;;;;-2.49;84.82;141671.61;1834974;77;22125;-66
2021/11/17 05:08:11;;;;;;;45.73;21.90;;;;;;;-2.49;84.87;141671.61;1835047;77;22159;-67
2021/11/17 05:11:00;;;;;;;40.28;23.45;;;;;;;-2.50;85.01;141669.09;1819435;77;28023;-64
2021/11/17 05:13:47;;;;;;;40.08;19.92;;;;;;;-2.47;85.01;141676.58;1835088;77;22164;-67
2021/11/17 05:16:46;;;;;;;41.00;21.65;;;;;;;-2.49;85.15;141670.38;1834973;77;22132;-67
2021/11/17 05:19:56;;;;;;;36.20;20.77;;;;;;;-2.51;85.35;141665.41;1834972;77;22156;-66
2021/11/17 05:22:54;;;;;;;36.95;19.85;;;;;;;-2.52;85.39;141664.19;1834966;77;22128;-67
2021/11/17 05:26:01;;;;;;;39.10;22.40;;;;;;;-2.46;85.51;141679.05;1834761;77;22165;-68
2021/11/17 05:28:59;;;;;;;38.88;22.42;;;;;;;-2.20;85.53;141741.06;1837794;77;28420;-65
2021/11/17 05:32:13;;;;;;;33.23;19.35;;;;;;;-1.82;84.69;141832.88;1843406;77;22124;-67
2021/11/17 05:34:56;;;;;;;35.48;19.12;;;;;;;-1.30;83.52;141959.44;1835067;77;22583;-66
2021/11/17 05:38:24;;;;;;;35.80;19.48;;;;;;;-0.81;81.55;142078.69;1834668;77;22160;-68
2021/11/17 05:41:14;;;;;;;34.43;18.70;;;;;;;-0.22;80.38;142221.55;1816073;77;22157;-66
2021/11/17 05:44:34;;;;;;;37.60;20.10;;;;;;;0.27;77.29;142339.63;1828650;77;22612;-66
2021/11/17 05:47:41;;;;;;;34.92;19.92;;;;;;;0.64;75.47;142431.66;1817434;77;22196;-66
2021/11/17 05:50:42;;;;;;;35.60;19.62;;;;;;;1.16;72.96;142556.05;1827091;77;22184;-62
2021/11/17 05:54:17;;;;;;;34.05;18.70;;;;;;;1.68;70.95;142682.97;1826025;77;22171;-66
2021/11/17 05:56:58;;;;;;;33.20;19.25;;;;;;;2.36;67.75;142849.81;1847238;77;22139;-67
2021/11/17 06:00:21;;;;;;;36.42;18.17;;;;;;;2.77;66.81;142948.25;1819004;77;22163;-67
2021/11/17 06:03:16;;;;;;;32.13;18.10;;;;;;;3.53;64.23;143132.72;1817894;77;22260;-67
2021/11/17 06:06:11;;;;;;;31.23;19.45;;;;;;;3.88;61.58;143220.02;1818163;77;22224;-69
2021/11/17 06:08:47;;;;;;;33.33;21.07;;;;;;;5.11;58.86;143518.27;1797445;77;28094;-65
2021/11/17 06:11:50;;;;;;;32.35;19.12;;;;;;;5.21;58.42;143543.23;1816741;77;22641;-67
2021/11/17 06:14:43;;;;;;;34.67;20.05;;;;;;;5.91;55.40;143713.13;1823290;77;22693;-65
2021/11/17 06:17:27;;;;;;;31.02;20.00;;;;;;;5.81;55.82;143690.62;1801289;77;28155;-65
2021/11/17 06:20:28;;;;;;;31.30;17.98;;;;;;;6.46;53.15;143848.11;1815891;77;22594;-67
2021/11/17 06:23:40;;;;;;;34.00;19.45;;;;;;;6.72;51.33;143913.16;1828575;77;22260;-66
2021/11/17 06:26:28;;;;;;;29.27;18.77;;;;;;;7.10;50.98;144005.69;1816931;77;22249;-66
2021/11/17 06:29:33;;;;;;;30.68;17.65;;;;;;;7.17;50.01;144023.20;1815876;77;22179;-65
2021/11/17 06:32:26;;;;;;;33.20;19.60;;;;;;;8.00;48.44;144225.88;1805156;77;28015;-69
2021/11/17 06:35:04;;;;;;;33.35;17.23;;;;;;;8.46;46.98;144338.58;1816745;77;22140;-68
2021/11/17 06:38:02;;;;;;;27.90;16.87;;;;;;;9.05;45.43;144481.34;1818126;77;22191;-66
2021/11/17 06:40:42;;;;;;;23.75;16.00;;;;;;;9.44;45.32;144576.56;1819809;77;22164;-66
2021/11/17 06:43:18;;;;;;;29.48;17.15;;;;;;;10.18;42.75;144758.34;1833708;77;22144;-66
2021/11/17 06:45:56;;;;;;;28.32;17.57;;;;;;;10.16;43.17;144754.56;1806018;77;22163;-66
2021/11/17 06:48:36;;;;;;;31.75;18.45;;;;;;;10.84;42.77;144921.44;1815792;77;22271;-64
2021/11/17 06:51:17;;;;;;;29.95;18.62;;;;;;;11.74;41.20;145141.03;1816780;77;22651;-71
2021/11/17 06:54:18;;;;;;;30.37;18.17;;;;;;;11.60;39.97;145105.88;1810059;77;22286;-64
2021/11/17 06:56:54;;;;;;;27.82;18.32;;;;;;;11.63;39.77;145114.69;1843057;78;22183;-66
2021/11/17 06:59:29;;;;;;;30.90;19.37;;;;;;;12.20;39.40;145252.84;1843131;77;22169;-69
2021/11/17 07:02:07;;;;;;;31.95;20.60;;;;;;;12.42;38.44;145306.88;1834395;77;22180;-76
2021/11/17 07:05:01;;;;;;;34.55;22.77;;;;;;;13.29;37.39;145520.52;1834630;77;22160;-67
2021/11/17 07:07:38;;;;;;;42.17;24.52;;;;;;;13.67;36.00;145616.03;1834569;77;22231;-69
2021/11/17 07:10:25;;;;;;;35.17;22.05;;;;;;;14.03;34.77;145704.06;1853042;77;22256;-68
2021/11/17 07:13:01;;;;;;;32.23;20.90;;;;;;;14.10;34.90;145721.67;1834536;77;22160;-66
2021/11/17 07:15:55;;;;;;;30.97;20.70;;;;;;;14.12;34.44;145725.47;1834501;77;22152;-68
2021/11/17 07:21:44;;;;;;;32.08;20.08;;;;;;;14.56;32.95;145833.69;1834158;77;22163;-67
2021/11/17 07:24:20;;;;;;;29.75;20.80;;;;;;;14.17;34.09;145736.75;1834772;77;22160;-69
2021/11/17 07:27:22;;;;;;;28.32;19.73;;;;;;;13.62;33.75;145603.47;1834899;77;22152;-67
2021/11/17 07:29:56;;;;;;;34.83;21.52;;;;;;;12.80;34.94;145402.33;1853608;77;22151;-68
2021/11/17 07:32:31;;;;;;;36.63;25.37;;;;;;;12.66;35.48;145365.89;1819517;77;28012;-68
2021/11/17 07:35:12;;;;;;;31.87;20.95;;;;;;;13.15;35.14;145487.80;1834254;77;22587;-67
2021/11/17 07:37:52;;;;;;;33.80;22.00;;;;;;;13.60;35.01;145598.42;1835057;77;22125;-67
2021/11/17 07:40:30;;;;;;;33.30;21.90;;;;;;;14.26;34.01;145759.41;1835100;77;22176;-67
2021/11/17 07:43:14;;;;;;;37.67;24.10;;;;;;;14.48;33.53;145814.77;1834397;77;22129;-68
2021/11/17 07:46:11;;;;;;;38.60;22.85;;;;;;;14.31;32.54;145771.98;1834792;77;22191;-67
2021/11/17 07:49:13;;;;;;;35.65;22.75;;;;;;;13.32;34.54;145529.28;1834186;77;22209;-68
2021/11/17 07:52:13;;;;;;;34.98;24.00;;;;;;;13.57;34.68;145590.89;1834109;77;22606;-66
2021/11/17 07:55:12;;;;;;;34.27;22.37;;;;;;;13.78;34.13;145641.19;1835095;77;22180;-68
2021/11/17 07:58:13;;;;;;;32.83;23.00;;;;;;;13.68;34.43;145618.53;1853572;77;22187;-67
2021/11/17 08:01:15;;;;;;;32.63;22.42;;;;;;;13.05;34.39;145462.63;1834205;77;22173;-67
2021/11/17 08:04:14;;;;;;;42.05;24.77;;;;;;;11.86;36.37;145171.23;1848291;78;22160;-67
2021/11/17 08:07:14;;;;;;;38.23;23.60;;;;;;;12.00;36.61;145205.11;1835047;77;22133;-67
2021/11/17 08:10:23;;;;;;;36.15;23.15;;;;;;;12.23;36.60;145260.38;1834036;77;22179;-66
2021/11/17 08:13:10;;;;;;;38.28;24.45;;;;;;;12.01;36.90;145206.36;1834941;77;22539;-71
2021/11/17 08:15:51;;;;;;;45.80;29.48;;;;;;;11.51;37.30;145085.80;1834118;77;22604;-64
2021/11/17 08:18:26;;;;;;;52.98;30.57;;;;;;;11.54;37.69;145092.08;1835015;77;22622;-64
2021/11/17 08:21:02;;;;;;;47.25;28.73;;;;;;;11.14;38.27;144994.17;1835010;77;22574;-65
2021/11/17 08:23:39;;;;;;;35.48;23.18;;;;;;;10.68;38.90;144880.02;1834798;77;22159;-66
2021/11/17 08:26:33;;;;;;;35.85;23.07;;;;;;;10.27;39.71;144779.64;1834978;77;22157;-68
2021/11/17 08:29:09;;;;;;;39.53;22.55;;;;;;;9.87;40.28;144683.13;1834976;77;22152;-67
2021/11/17 08:31:44;;;;;;;42.53;28.25;;;;;;;9.39;41.08;144565.31;1819477;77;28028;-63
2021/11/17 08:34:20;;;;;;;40.28;25.62;;;;;;;9.14;41.81;144503.92;1853474;77;22155;-67
2021/11/17 08:36:55;;;;;;;42.03;24.95;;;;;;;8.93;42.48;144452.58;1834957;77;22124;-66
2021/11/17 08:39:30;;;;;;;45.05;24.55;;;;;;;8.65;42.82;144383.64;1853625;77;22123;-67
2021/11/17 08:42:09;;;;;;;46.77;29.00;;;;;;;8.08;43.94;144243.41;1819319;77;28023;-66
2021/11/17 08:45:07;;;;;;;44.33;26.93;;;;;;;7.83;44.79;144183.31;1843314;77;22156;-65
2021/11/17 08:48:02;;;;;;;42.10;25.20;;;;;;;7.54;45.51;144113.25;1834960;77;22587;-65
2021/11/17 08:50:59;;;;;;;45.60;26.65;;;;;;;7.18;46.22;144025.69;1834872;77;22156;-68
2021/11/17 08:53:52;;;;;;;43.00;24.12;;;;;;;6.83;46.81;143938.16;1834877;77;22176;-68
2021/11/17 08:56:31;;;;;;;43.75;27.37;;;;;;;6.47;47.72;143850.64;1819391;77;27987;-64
2021/11/17 08:59:06;;;;;;;45.45;24.45;;;;;;;6.27;48.46;143801.89;1835020;77;22149;-65
2021/11/17 09:02:05;;;;;;;39.00;23.02;;;;;;;5.91;49.19;143713.13;1834887;77;22137;-66
2021/11/17 09:04:43;;;;;;;40.17;21.87;;;;;;;5.59;49.99;143635.66;1834945;77;22125;-66
2021/11/17 09:07:19;;;;;;;40.70;20.55;;;;;;;5.23;50.65;143548.23;1835037;77;22575;-68
2021/11/17 09:09:53;;;;;;;36.65;20.40;;;;;;;4.74;52.13;143428.41;1819432;77;27995;-67
2021/11/17 09:12:28;;;;;;;34.70;20.17;;;;;;;4.28;53.25;143317.33;1835002;77;22124;-67
2021/11/17 09:15:06;;;;;;;31.55;17.98;;;;;;;4.03;54.13;143256.20;1835099;77;22133;-66
2021/11/17 09:17:43;;;;;;;39.78;18.98;;;;;;;3.86;54.54;143213.78;1835230;77;20207;-64
2021/11/17 09:20:21;;;;;;;33.38;18.57;;;;;;;3.69;55.36;143173.89;1834960;77;22124;-65
2021/11/17 09:23:16;;;;;;;36.20;18.57;;;;;;;3.59;55.98;143148.95;1853420;77;22159;-68
2021/11/17 09:26:12;;;;;;;26.15;15.40;;;;;;;3.48;56.37;143121.50;1834805;77;22563;-67
2021/11/17 09:29:06;;;;;;;27.90;16.35;;;;;;;3.25;56.64;143065.41;1827662;77;28006;-64
2021/11/17 09:32:02;;;;;;;23.95;14.15;;;;;;;3.21;56.88;143055.45;1853437;77;22152;-64
2021/11/17 09:34:46;;;;;;;27.15;15.93;;;;;;;3.15;56.97;143040.47;1853490;77;22208;-65
2021/11/17 09:37:24;;;;;;;29.40;15.35;;;;;;;3.12;57.08;143034.25;1834924;77;22156;-68
2021/11/17 09:40:30;;;;;;;29.85;15.35;;;;;;;3.12;57.30;143034.25;1834793;77;22630;-66
2021/11/17 09:43:31;;;;;;;29.32;16.57;;;;;;;3.15;57.77;143041.70;1834984;77;22569;-65
2021/11/17 09:46:29;;;;;;;31.07;16.73;;;;;;;3.20;58.00;143054.17;1853473;77;22155;-68
2021/11/17 09:49:37;;;;;;;23.65;14.83;;;;;;;3.25;58.08;143065.41;1834852;77;22247;-68
2021/11/17 09:52:20;;;;;;;23.35;13.50;;;;;;;2.94;57.69;142989.38;1853516;77;22163;-68
2021/11/17 09:55:12;;;;;;;20.10;11.97;;;;;;;2.66;57.95;142920.86;1834962;77;22152;-65
2021/11/17 09:58:21;;;;;;;18.90;10.85;;;;;;;2.65;58.04;142919.63;1853478;77;22625;-66
2021/11/17 10:01:09;;;;;;;21.10;12.30;;;;;;;2.51;57.68;142884.72;1835026;77;22603;-67
2021/11/17 10:03:53;;;;;;;26.85;12.45;;;;;;;2.17;59.14;142802.53;1834989;77;22145;-65
2021/11/17 10:10:42;;;;;;;27.67;11.53;;;;;;;2.16;60.15;142801.28;1834199;77;22156;-66
2021/11/17 10:13:17;;;;;;;21.57;12.98;;;;;;;2.20;59.75;142809.98;1837749;77;28020;-69
2021/11/17 10:15:55;;;;;;;19.07;10.53;;;;;;;2.30;59.73;142834.89;1834981;77;22129;-65
2021/11/17 10:19:15;;;;;;;21.25;11.38;;;;;;;2.33;59.68;142841.13;1834955;77;22160;-65
2021/11/17 10:22:08;;;;;;;21.00;11.75;;;;;;;2.06;59.49;142775.09;1834981;77;22156;-64
2021/11/17 10:24:52;;;;;;;18.70;10.72;;;;;;;1.90;60.32;142736.50;1834941;77;22164;-65
2021/11/17 10:27:31;;;;;;;19.85;11.55;;;;;;;2.01;60.71;142762.66;1835030;77;22170;-67
2021/11/17 10:30:33;;;;;;;19.95;10.43;;;;;;;1.97;60.78;142753.95;1835138;77;22128;-65
2021/11/17 10:33:19;;;;;;;21.90;11.73;;;;;;;1.87;61.56;142730.28;1853514;77;22120;-68
2021/11/17 10:36:16;;;;;;;22.90;12.33;;;;;;;2.05;61.41;142772.62;1819489;77;28021;-65
2021/11/17 10:39:12;;;;;;;19.52;12.58;;;;;;;2.31;60.53;142837.36;1834878;77;22590;-68
2021/11/17 10:42:24;;;;;;;19.87;11.73;;;;;;;2.36;60.06;142849.81;1853475;77;22199;-66
2021/11/17 10:45:16;;;;;;;19.45;11.12;;;;;;;2.41;59.73;142859.81;1800723;79;22173;-65
2021/11/17 10:48:00;;;;;;;21.80;10.18;;;;;;;2.46;59.25;142873.50;1834840;77;22157;-64
2021/11/17 10:50:41;;;;;;;18.67;10.80;;;;;;;2.39;59.29;142857.33;1833925;77;22619;-65
2021/11/17 10:53:38;;;;;;;21.33;11.45;;;;;;;2.26;59.13;142824.91;1834913;77;22152;-65
2021/11/17 10:56:19;;;;;;;18.95;11.97;;;;;;;2.18;59.67;142806.23;1853450;77;22128;-67
2021/11/17 10:58:59;;;;;;;20.27;11.70;;;;;;;2.18;59.88;142806.23;1853517;77;22171;-66
2021/11/17 11:01:53;;;;;;;28.02;12.90;;;;;;;2.26;59.59;142823.67;1853690;77;22128;-66
2021/11/17 11:04:53;;;;;;;23.67;11.70;;;;;;;2.45;59.15;142871.03;1853518;77;22263;-65
2021/11/17 11:08:07;;;;;;;21.62;11.53;;;;;;;2.52;58.59;142887.19;1834974;77;22132;-66
2021/11/17 11:10:47;;;;;;;25.27;13.05;;;;;;;2.55;58.73;142895.94;1834827;77;22153;-69
2021/11/17 11:13:34;;;;;;;24.87;15.13;;;;;;;2.33;59.13;142842.36;1837596;77;38747;-67
2021/11/17 11:16:32;;;;;;;21.82;12.82;;;;;;;2.34;59.46;142844.87;1853339;77;22143;-66
2021/11/17 11:19:27;;;;;;;24.50;13.70;;;;;;;2.39;59.35;142857.33;1834807;77;22161;-66
2021/11/17 11:22:27;;;;;;;26.62;13.53;;;;;;;2.35;59.77;142847.34;1853521;77;22151;-66
2021/11/17 11:25:52;;;;;;;29.50;16.17;;;;;;;2.42;59.47;142862.28;1834954;77;22133;-65
2021/11/17 11:28:51;;;;;;;31.48;13.13;;;;;;;2.59;58.63;142904.64;1834921;77;22149;-66
2021/11/17 11:31:49;;;;;;;25.12;13.93;;;;;;;2.49;58.40;142879.72;1834729;77;22180;-68
2021/11/17 11:34:49;;;;;;;29.27;14.23;;;;;;;2.63;58.66;142914.63;1834996;77;22161;-68
2021/11/17 11:37:39;;;;;;;25.95;12.93;;;;;;;2.76;58.02;142945.78;1834106;77;22176;-66
2021/11/17 11:40:25;;;;;;;25.20;13.60;;;;;;;2.86;57.36;142970.69;1853498;77;22274;-67
2021/11/17 11:43:17;;;;;;;28.77;14.07;;;;;;;2.84;57.49;142965.70;1835008;77;22132;-68
2021/11/17 11:46:31;;;;;;;31.55;16.02;;;;;;;2.79;57.72;142954.47;1834760;77;22204;-64
2021/11/17 11:49:56;;;;;;;26.82;14.78;;;;;;;2.69;57.96;142928.31;1834154;77;22180;-67
2021/11/17 11:52:39;;;;;;;25.88;14.35;;;;;;;2.80;58.00;142955.77;1835030;77;22153;-63
2021/11/17 11:55:18;;;;;;;28.02;15.35;;;;;;;3.05;57.13;143016.78;1834968;77;22157;-67
2021/11/17 11:58:27;;;;;;;27.77;15.40;;;;;;;3.04;55.96;143014.31;1853467;77;22131;-65
2021/11/17 12:01:16;;;;;;;25.15;14.45;;;;;;;3.07;55.91;143021.78;1835041;77;22144;-66
2021/11/17 12:04:00;;;;;;;28.75;16.37;;;;;;;3.09;55.83;143025.53;1834965;77;22156;-65
2021/11/17 12:06:55;;;;;;;26.50;15.20;;;;;;;3.09;56.14;143025.53;1834997;77;22157;-66
2021/11/17 12:09:39;;;;;;;26.00;13.70;;;;;;;3.09;56.30;143026.78;1853561;77;22136;-64
2021/11/17 12:12:25;;;;;;;26.40;14.30;;;;;;;3.02;56.26;143010.55;1834917;77;22149;-65
2021/11/17 12:15:16;;;;;;;29.52;14.63;;;;;;;2.86;56.18;142969.45;1834870;77;22124;-67
2021/11/17 12:18:13;;;;;;;28.40;14.58;;;;;;;2.83;56.53;142963.22;1835120;77;22149;-65
2021/11/17 12:21:28;;;;;;;25.50;13.43;;;;;;;2.96;56.54;142994.38;1834771;77;22216;-67
2021/11/17 12:24:15;;;;;;;30.12;15.18;;;;;;;3.07;56.59;143021.78;1834168;77;22129;-65
2021/11/17 12:27:23;;;;;;;25.65;15.58;;;;;;;3.20;56.47;143054.17;1837807;77;28005;-67
2021/11/17 12:30:09;;;;;;;24.82;14.13;;;;;;;3.16;56.33;143044.22;1834960;77;22239;-64
2021/11/17 12:33:02;;;;;;;25.08;15.15;;;;;;;3.24;56.02;143064.16;1837700;77;28206;-64
2021/11/17 12:36:17;;;;;;;24.43;13.28;;;;;;;3.14;55.99;143039.23;1853583;77;22135;-67
2021/11/17 12:38:53;;;;;;;26.65;14.23;;;;;;;3.09;56.01;143026.78;1834891;77;22132;-66
2021/11/17 12:41:54;;;;;;;26.40;13.83;;;;;;;2.98;56.15;142999.38;1853492;77;22151;-67
2021/11/17 12:44:35;;;;;;;30.62;13.88;;;;;;;2.91;56.47;142983.16;1853608;77;22160;-67
2021/11/17 12:47:43;;;;;;;24.65;13.55;;;;;;;3.07;56.64;143020.53;1834976;77;22137;-66
2021/11/17 12:50:41;;;;;;;25.62;13.15;;;;;;;3.13;55.33;143036.75;1834990;77;22132;-67
2021/11/17 12:53:25;;;;;;;28.40;14.63;;;;;;;3.05;55.16;143016.78;1835035;77;22129;-67
2021/11/17 12:56:29;;;;;;;28.73;13.15;;;;;;;2.97;55.66;142998.09;1834981;77;22157;-66
2021/11/17 12:59:30;;;;;;;27.82;13.05;;;;;;;2.85;56.20;142966.94;1834770;77;22129;-66
2021/11/17 13:02:10;;;;;;;25.70;14.45;;;;;;;2.90;56.20;142979.41;1834974;77;22184;-64
2021/11/17 13:04:45;;;;;;;26.73;14.50;;;;;;;2.93;56.18;142986.91;1829099;77;22563;-66
2021/11/17 13:07:47;;;;;;;28.00;13.70;;;;;;;2.90;56.20;142980.69;1834824;77;22124;-67
2021/11/17 13:10:47;;;;;;;27.32;14.00;;;;;;;2.94;56.30;142989.38;1853255;77;22538;-68
2021/11/17 13:13:58;;;;;;;26.07;14.38;;;;;;;2.95;56.20;142991.86;1834711;77;22266;-67
2021/11/17 13:16:40;;;;;;;25.32;13.55;;;;;;;2.82;56.46;142961.98;1834932;77;22136;-72
2021/11/17 13:19:37;;;;;;;23.87;13.15;;;;;;;2.71;56.73;142933.31;1853508;77;22660;-69
2021/11/17 13:22:39;;;;;;;29.32;14.80;;;;;;;2.67;56.92;142924.61;1853490;77;22223;-65
2021/11/17 13:25:28;;;;;;;25.23;14.38;;;;;;;2.68;56.83;142927.08;1834936;77;22152;-72
2021/11/17 13:28:31;;;;;;;28.30;14.30;;;;;;;2.65;56.53;142919.63;1834135;77;22201;-66
2021/11/17 13:31:34;;;;;;;32.60;15.20;;;;;;;2.62;56.71;142912.16;1834985;77;22180;-68
2021/11/17 13:34:39;;;;;;;25.35;13.98;;;;;;;2.59;56.88;142905.87;1853524;77;22250;-73
2021/11/17 13:37:37;;;;;;;24.20;14.60;;;;;;;2.57;57.07;142899.66;1834924;77;22191;-70
2021/11/17 13:40:24;;;;;;;30.32;14.90;;;;;;;2.44;57.49;142867.27;1853490;77;22159;-68
2021/11/17 13:43:07;;;;;;;26.80;15.08;;;;;;;2.32;57.88;142839.88;1834106;77;22622;-68
2021/11/17 13:45:46;;;;;;;29.95;15.08;;;;;;;2.27;58.23;142827.44;1834944;77;22153;-67
2021/11/17 13:48:28;;;;;;;28.02;15.68;;;;;;;2.16;58.63;142800.00;1853379;77;22155;-69
2021/11/17 13:51:27;;;;;;;28.98;16.52;;;;;;;2.06;59.04;142775.09;1853344;77;22167;-68
2021/11/17 13:54:28;;;;;;;34.88;18.57;;;;;;;1.98;59.41;142755.19;1853608;77;22610;-68
2021/11/17 13:57:12;;;;;;;30.35;16.67;;;;;;;1.93;59.63;142745.25;1853525;77;22312;-70
2021/11/17 14:00:09;;;;;;;29.77;16.37;;;;;;;1.94;59.42;142747.72;1853553;77;22124;-67
2021/11/17 14:03:03;;;;;;;33.53;17.55;;;;;;;1.92;59.30;142741.50;1834916;77;22133;-64
2021/11/17 14:05:42;;;;;;;34.03;17.35;;;;;;;1.78;59.50;142706.63;1853502;77;22156;-71
2021/11/17 14:08:24;;;;;;;37.20;19.27;;;;;;;1.61;60.03;142665.58;1848260;77;22201;-67
2021/11/17 14:11:19;;;;;;;34.33;17.45;;;;;;;1.47;60.31;142631.94;1800868;79;22156;-69
2021/11/17 14:14:13;;;;;;;31.80;16.25;;;;;;;1.36;60.70;142605.81;1835028;77;22206;-65
2021/11/17 14:16:48;;;;;;;30.97;18.82;;;;;;;1.26;60.94;142582.16;1837861;77;27960;-69
2021/11/17 14:19:23;;;;;;;33.45;19.65;;;;;;;1.24;61.21;142575.94;1819356;77;27991;-71
2021/11/17 14:22:25;;;;;;;32.50;16.85;;;;;;;1.23;61.33;142573.47;1853769;77;22203;-70
2021/11/17 14:25:08;;;;;;;28.85;16.45;;;;;;;1.13;61.62;142548.59;1835009;77;22133;-68
2021/11/17 14:27:48;;;;;;;34.73;17.57;;;;;;;1.06;61.72;142532.39;1834979;77;22637;-65
2021/11/17 14:30:41;;;;;;;41.08;16.67;;;;;;;1.00;61.96;142518.72;1834954;77;22136;-69
2021/11/17 14:33:21;;;;;;;33.33;17.57;;;;;;;0.96;62.22;142508.75;1853587;77;22132;-65
2021/11/17 14:36:25;;;;;;;38.17;17.12;;;;;;;0.92;62.47;142497.59;1834109;77;22636;-71
2021/11/17 14:39:03;;;;;;;36.83;17.92;;;;;;;0.86;62.75;142485.11;1853499;77;22550;-63
2021/11/17 14:41:38;;;;;;;35.43;17.82;;;;;;;0.85;62.84;142481.41;1811266;77;22174;-68
2021/11/17 14:44:14;;;;;;;39.63;16.67;;;;;;;0.81;62.96;142471.44;1853521;77;22132;-65
2021/11/17 14:46:49;;;;;;;38.55;19.70;;;;;;;0.78;63.21;142463.97;1819407;77;28021;-67
2021/11/17 14:49:31;;;;;;;39.15;18.05;;;;;;;0.78;63.32;142465.22;1834143;77;22177;-65
2021/11/17 14:52:11;;;;;;;44.15;19.40;;;;;;;0.73;63.41;142452.78;1834942;77;22133;-66
2021/11/17 14:55:18;;;;;;;37.70;18.48;;;;;;;0.71;63.61;142446.56;1853443;77;22200;-64
2021/11/17 14:58:08;;;;;;;36.98;17.42;;;;;;;0.65;63.78;142434.13;1853537;77;22155;-66
2021/11/17 15:00:51;;;;;;;35.28;18.60;;;;;;;0.61;63.87;142422.92;1819369;77;27973;-66
2021/11/17 15:03:27;;;;;;;33.98;16.15;;;;;;;0.60;63.99;142421.69;1853434;77;22154;-66
2021/11/17 15:06:02;;;;;;;36.25;18.70;;;;;;;0.54;64.24;142406.78;1834927;77;22128;-66
2021/11/17 15:08:39;;;;;;;35.28;18.30;;;;;;;0.51;64.45;142398.05;1853420;77;22131;-67
2021/11/17 15:11:16;;;;;;;38.95;17.80;;;;;;;0.48;64.59;142391.83;1834934;77;22539;-66
2021/11/17 15:13:52;;;;;;;37.93;18.02;;;;;;;0.46;64.75;142386.89;1834961;77;22149;-70
2021/11/17 15:16:47;;;;;;;44.15;20.30;;;;;;;0.44;64.92;142381.91;1853443;77;22163;-66
2021/11/17 15:19:41;;;;;;;36.55;17.57;;;;;;;0.39;65.09;142370.72;1834916;77;22152;-66
2021/11/17 15:22:24;;;;;;;37.83;19.35;;;;;;;0.36;65.19;142362.03;1834039;77;22133;-69
2021/11/17 15:24:59;;;;;;;43.78;20.02;;;;;;;0.33;65.37;142354.53;1834765;77;22256;-64
2021/11/17 15:28:12;;;;;;;40.95;20.25;;;;;;;0.28;65.66;142342.09;1853351;77;22618;-65
2021/11/17 15:30:59;;;;;;;38.83;19.35;;;;;;;0.21;65.83;142327.20;1853461;77;22136;-68
2021/11/17 15:33:54;;;;;;;36.03;21.02;;;;;;;0.15;66.12;142312.30;1819282;77;28036;-68
2021/11/17 15:37:09;;;;;;;46.95;22.00;;;;;;;0.15;66.28;142312.30;1833276;77;22205;-66
2021/11/17 15:39:55;;;;;;;43.63;20.57;;;;;;;0.09;66.47;142297.36;1853524;77;20099;-69
2021/11/17 15:42:53;;;;;;;36.98;18.73;;;;;;;0.07;66.67;142292.37;1834988;77;22210;-67
2021/11/17 15:45:46;;;;;;;43.95;21.37;;;;;;;0.05;66.79;142287.44;1835105;77;22137;-67